Moyie Springs, ID

8:33 AM PDT on September 30, 2014 (GMT -0700)
Paradise Valley | Change Station
CLOSE
Current Station
Personal Weather Station
Location: Bonner Ferry, ID
Elevation: 2300 ft
Nearby Weather Stations

Elev 2300 ft 48.67 °N, 116.30 °W | Updated 8 seconds ago

Mostly Cloudy
Mostly Cloudy
53.2 °F
Feels Like 53.2 °F
N
1.6
Wind Variable Wind from South
Gusts 3.8 mph

Today
High -- | Low -- °F
--% Chance of Precip.
Yesterday
High -- | Low -- °F
Precip. -- in
6:43 AM 6:26 PM
Waxing Crescent, 37% visible
Pressure 29.77 in
Visibility 10.0 miles
Clouds Mostly Cloudy 11000 ft
Dew Point 50 °F
Humidity 90%
Rainfall 0.00 in
Snow Depth 2 in , 1 in , 1 in
UV 0 out of 12
Pollen 1.10 out of 12
Air Quality Not available.
Flu Activity Not available.
METAR K65S 301515Z AUTO 21006KT 10SM BKN110 11/10 A2977 RMK AO2

More Conditions Fewer Conditions

Pressure 29.77 in
Visibility 10.0 miles
Clouds Mostly Cloudy 11000 ft
Dew Point 50 °F
Humidity 90%
Rainfall 0.00 in
Snow Depth 2 in , 1 in , 1 in
UV 0 out of 12
Pollen 1.10 out of 12
Air Quality Not available.
Flu Activity Not available.
METAR K65S 301515Z AUTO 21006KT 10SM BKN110 11/10 A2977 RMK AO2

More Conditions Fewer Conditions

10-Day Weather Forecast

Almanac

Astronomy

Sep. 30, 2014 Rise Set
Actual Time 6:43 AM PDT 6:26 PM PDT
Civil Twilight 6:12 AM PDT 6:57 PM PDT
Nautical Twilight 5:35 AM PDT 7:33 PM PDT
Astronomical Twilight 4:58 AM PDT 8:11 PM PDT
Moon 1:18 PM PDT 10:38 PM PDT
Length of Visible Light 12h 45m
Length of Day
11h 42m
Tomorrow will be 3m 32s shorter.
Waxing Crescent, 37% of the Moon is Illuminated
Today
Waxing Crescent
Oct 1
First Quarter
Oct 8
Full
Oct 15
Last Quarter
Oct 23
New

Today's Extremes

State Highs State Lows

Community

WunderPhotos

Upload Photos

1,757,669 photos uploaded!

Nearby

Snow Depth

Station Depth Elevation
Franklin Basin 2 in 8170 ft
Camas Creek Divide 1 in 5710 ft
Galena 1 in 7440 ft
Wildhorse Divide 0 in 6490 ft
Moscow Mountain 0 in 4700 ft

Earthquake Activity

City Distance Mag. Time & Date
No recent earthquake activity has been reported nearby.
Minimum magnitude displayed is 2.5.

Coastal Water Temperatures

Place Temperature
No Stations Reporting

Nearby Weather Stations